Portada
METAR-TAF:

METAR-TAF

Aeropuertos :

Aeropuerto de Oujda Angads

Oujda, Marruecos

latitud: 34-47N, longitud: 001-56W, altitud: 468 m

Observación

El informe se hizo hace 48 minutos, a las 23:00 UTC
Viento 5 kt del oeste
Temperatura 25°C
Humedad 74%
Presión 1018 hPa
Visibilidad 10 km o más
sin nubes por debajo de 1500 m y sin presencia de cumulonimbus.

METAR: GMFO 082300Z 28005KT CAVOK 25/20 Q1018 NOSIG

Hora: 00:48 (23:48 UTC)

Pronóstico

El informe se hizo hace 48 minutos, a las 23:00 UTC
Pronóstico válido del 09 a las 00 UTC al 10 a las 06 UTC
Viento 2 kt con dirección variable
Visibilidad 10 km o más
sin nubes por debajo de 1500 m y sin presencia de cumulonimbus.
Evolucionando progresivamente
del 09 a las 13 UTC al 09 a las 17 UTC
Viento 13 kt del norte-noroeste

TAF: GMFO 082300Z 0900/1006 VRB02KT CAVOK BECMG 0913/0917 34013KT

Observaciones y pronósticos meteorológicos de más de 4000 aeropuertos (mensajes METAR y TAF).

Los puntos amarillos y rojos representan las estaciones disponibles.

Ponga el ratón en el punto deseado para ver el nombre de la estación.

Haga clic para ver las observaciones y los pronósticos meteorológicos.

Para cambiar el mapa : haga clic en los botones verdes con una cruz de color negro para hacer un zoom, en el botón verde con un guión para alejar o en las flechas verdes para mapas adyacentes.


METAR-TAF: